Report METAR

 

Warning: fopen(./cache/metarcache-KSJC.txt): failed to open stream: No such file or directory in /web/htdocs/www.oristanometeo.com/home/get-metar-conditions-inc.php on line 195 Warning: fopen(./cache/metarcache-KNUQ.txt): failed to open stream: No such file or directory in /web/htdocs/www.oristanometeo.com/home/get-metar-conditions-inc.php on line 195 Warning: fopen(./cache/metarcache-KPAO.txt): failed to open stream: No such file or directory in /web/htdocs/www.oristanometeo.com/home/get-metar-conditions-inc.php on line 195 Warning: fopen(./cache/metarcache-KRHV.txt): failed to open stream: No such file or directory in /web/htdocs/www.oristanometeo.com/home/get-metar-conditions-inc.php on line 195 Warning: fopen(./cache/metarcache-KOAK.txt): failed to open stream: No such file or directory in /web/htdocs/www.oristanometeo.com/home/get-metar-conditions-inc.php on line 195 Warning: fopen(./cache/metarcache-KSQL.txt): failed to open stream: No such file or directory in /web/htdocs/www.oristanometeo.com/home/get-metar-conditions-inc.php on line 195 Warning: fopen(./cache/metarcache-KSFO.txt): failed to open stream: No such file or directory in /web/htdocs/www.oristanometeo.com/home/get-metar-conditions-inc.php on line 195 Warning: fopen(./cache/metarcache-KE16.txt): failed to open stream: No such file or directory in /web/htdocs/www.oristanometeo.com/home/get-metar-conditions-inc.php on line 195 Warning: fopen(./cache/metarcache-KWVI.txt): failed to open stream: No such file or directory in /web/htdocs/www.oristanometeo.com/home/get-metar-conditions-inc.php on line 195 Warning: fopen(./cache/metarcache-KHAF.txt): failed to open stream: No such file or directory in /web/htdocs/www.oristanometeo.com/home/get-metar-conditions-inc.php on line 195 Warning: fopen(./cache/metarcache-KHWD.txt): failed to open stream: No such file or directory in /web/htdocs/www.oristanometeo.com/home/get-metar-conditions-inc.php on line 195 Warning: fopen(./cache/metarcache-KLVK.txt): failed to open stream: No such file or directory in /web/htdocs/www.oristanometeo.com/home/get-metar-conditions-inc.php on line 195
KSJC - San Jose, California, USA
Distance from station: NE 14km
Dati ricevuti: 02/08/2021 18:53
Parz. nuvoloso
Parz. nuvoloso
 Vento da Variabile
Vento: Variabile 6 km/h
Temperatura: 19°C
P.to Rugiada: 12°C
Umidità: 64%
Barometro: 1019.6 hPa
Nuvole: Parz. nuvoloso
Visibility: 16 km
Cloud details: Few Clouds 610 m
Few Clouds 2134 m
Parz. nuvoloso 3658 m
2021/08/02 16:53 KSJC 021653Z VRB03KT 10SM FEW020 FEW070 SCT120 19/12 A3011 RMK AO2 SLP195 T01890117
KNUQ - Moffett Nas/Mtn, California, USA
Distance from station: N 14km
Dati ricevuti: 02/08/2021 19:35
Sereno
Sereno
 Vento da calmo
Vento: Calma
Temperatura: 19°C
P.to Rugiada: 13°C
Umidità: 68%
Barometro: 1019.6 hPa
Nuvole: Sereno
Visibility: 16 km
2021/08/02 17:35 KNUQ 021735Z AUTO 00000KT 10SM CLR 19/13 A3011 RMK AO2
KPAO - Palo Alto, California, USA
Distance from station: NNO 23km
Dati ricevuti: 02/08/2021 18:47
Parz. nuvoloso
Parz. nuvoloso
 Vento da NNE
Vento: NNE 7 km/h
Temperatura: 18°C
P.to Rugiada: 13°C
Umidità: 73%
Barometro: 1020 hPa
Nuvole: Parz. nuvoloso
Visibility: 16 km
Cloud details: Parz. nuvoloso 457 m
2021/08/02 16:47 KPAO 021647Z 02004KT 10SM SCT015 18/13 A3012
 
KRHV - San Jose/Reid, California, USA
Distance from station: ENE 19km
Dati ricevuti: 02/08/2021 18:50
Parz. nuvoloso
Parz. nuvoloso
 Vento da NO
Vento: NO 6 km/h
Temperatura: 19°C
P.to Rugiada: 12°C
Umidità: 64%
Barometro: 1020 hPa
Nuvole: Parz. nuvoloso
Visibility: 16 km
Cloud details: Few Clouds 762 m
Parz. nuvoloso 3048 m
2021/08/02 16:50 KRHV 021650Z 32003KT 10SM FEW025 SCT100 19/12 A3012
KOAK - Oakland, California, USA
Distance from station: NNO 50km
Dati ricevuti: 02/08/2021 18:53
Parz. nuvoloso
Parz. nuvoloso
 Vento da O
Vento: O 9 km/h
Temperatura: 18°C
P.to Rugiada: 12°C
Umidità: 68%
Barometro: 1020.3 hPa
Nuvole: Parz. nuvoloso
Visibility: 16 km
Cloud details: Few Clouds 366 m
Parz. nuvoloso 579 m
Parz. nuvoloso 6096 m
2021/08/02 16:53 KOAK 021653Z 28005KT 10SM FEW012 SCT019 SCT200 18/12 A3013 RMK AO2 SLP202 T01830122
KSQL - San Carlos Airpo, California, USA
Distance from station: NO 34km
Dati ricevuti: 02/08/2021 19:47
Few Clouds
Few Clouds
 Vento da calmo
Vento: Calma
Temperatura: 19°C
P.to Rugiada: 13°C
Umidità: 68%
Barometro: 1020 hPa
Nuvole: Few Clouds
Visibility: 16 km
Cloud details: Few Clouds 457 m
2021/08/02 17:47 KSQL 021747Z 00000KT 10SM FEW015 19/13 A3012
 
KSFO - San Francisco, California, USA
Distance from station: NO 49km
Dati ricevuti: 02/08/2021 18:56
Parz. nuvoloso
Parz. nuvoloso
 Vento da N
Vento: N 15 km/h
Temperatura: 19°C
P.to Rugiada: 12°C
Umidità: 64%
Barometro: 1019.6 hPa
Nuvole: Parz. nuvoloso
Visibility: 16 km
Cloud details: Few Clouds 183 m
Parz. nuvoloso 610 m
2021/08/02 16:56 KSFO 021656Z 35008KT 10SM FEW006 SCT020 19/12 A3011 RMK AO2 SLP196 T01890117 $
KE16 - San Martin, California, USA
Distance from station: ESE 43km
Dati ricevuti: 02/08/2021 19:35
Sereno
Sereno
 Vento da calmo
Vento: Calma
Temperatura: 19°C
P.to Rugiada: 12°C
Umidità: 64%
Barometro: 1020 hPa
Nuvole: Sereno
Visibility: 16 km
2021/08/02 17:35 KE16 021735Z AUTO 00000KT 10SM CLR 19/12 A3012 RMK AO2 PWINO PNO
KWVI - Watsonville, California, USA
Distance from station: SSE 44km
Dati ricevuti: 02/08/2021 18:53
Few Clouds
Few Clouds
 Vento da S
Vento: S 11 km/h
Temperatura: 19°C
P.to Rugiada: 13°C
Umidità: 68%
Barometro: 1020 hPa
Nuvole: Few Clouds
Visibility: 16 km
Cloud details: Few Clouds 518 m
2021/08/02 16:53 KWVI 021653Z AUTO 17006KT 10SM FEW017 19/13 A3012 RMK AO2 SLP200 T01940133
 
KHAF - Half Moon Bay, California, USA
Distance from station: ONO 50km
Dati ricevuti: 09/07/2021 16:35
DATI Obsoleti
Pioviggine, Sereno
Pioviggine, Sereno
 
Temperatura: 13°C
P.to Rugiada: 12°C
Umidità: 94%
Barometro: 1012.9 hPa
Summary: Pioviggine
Nuvole: Sereno
Visibility: 6 km
2021/07/09 14:35 KHAF 091435Z AUTO 4SM -RA CLR 13/12 A2991 RMK AO2
KHWD - Hayward, California, USA
Distance from station: N 44km
Dati ricevuti: 02/08/2021 19:01
Parz. nuvoloso
Parz. nuvoloso
 Vento da O
Vento: O 17 km/h
Temperatura: 18°C
P.to Rugiada: 12°C
Umidità: 68%
Barometro: 1019.6 hPa
Nuvole: Parz. nuvoloso
Visibility: 16 km
Cloud details: Parz. nuvoloso 671 m
2021/08/02 17:01 KHWD 021701Z 28009KT 10SM SCT022 18/12 A3011 RMK AO2 T01780122
KLVK - Livermore, California, USA
Distance from station: NNE 51km
Dati ricevuti: 02/08/2021 18:53
Sereno
Sereno
 Vento da Variabile
Vento: Variabile 7 km/h
Temperatura: 18°C
P.to Rugiada: 12°C
Umidità: 68%
Barometro: 1019.3 hPa
Nuvole: Sereno
Visibility: 16 km
2021/08/02 16:53 KLVK 021653Z VRB04KT 10SM CLR 18/12 A3010 RMK AO2 SLP191 T01780117